sensor_id;sensor_type;location;lat;lon;timestamp;temperature;humidity
75931;DHT22;64609;47.052;15.462;2023-12-29T00:01:46;6.80;64.70
75931;DHT22;64609;47.052;15.462;2023-12-29T00:04:11;6.80;64.80
75931;DHT22;64609;47.052;15.462;2023-12-29T00:06:40;6.70;64.60
75931;DHT22;64609;47.052;15.462;2023-12-29T00:09:06;6.60;64.50
75931;DHT22;64609;47.052;15.462;2023-12-29T00:11:33;6.50;64.60
75931;DHT22;64609;47.052;15.462;2023-12-29T00:13:59;6.50;64.90
75931;DHT22;64609;47.052;15.462;2023-12-29T00:16:24;6.40;64.90
75931;DHT22;64609;47.052;15.462;2023-12-29T00:18:50;6.40;65.10
75931;DHT22;64609;47.052;15.462;2023-12-29T00:21:16;6.40;65.10
75931;DHT22;64609;47.052;15.462;2023-12-29T00:23:41;6.40;65.10
75931;DHT22;64609;47.052;15.462;2023-12-29T00:26:07;6.40;65.00
75931;DHT22;64609;47.052;15.462;2023-12-29T00:28:33;6.40;65.10
75931;DHT22;64609;47.052;15.462;2023-12-29T00:31:01;6.40;65.10
75931;DHT22;64609;47.052;15.462;2023-12-29T00:33:26;6.40;65.10
75931;DHT22;64609;47.052;15.462;2023-12-29T00:35:52;6.40;65.10
75931;DHT22;64609;47.052;15.462;2023-12-29T00:38:17;6.30;65.20
75931;DHT22;64609;47.052;15.462;2023-12-29T00:40:43;6.30;65.30
75931;DHT22;64609;47.052;15.462;2023-12-29T00:43:09;6.30;65.30
75931;DHT22;64609;47.052;15.462;2023-12-29T00:45:34;6.30;65.30
75931;DHT22;64609;47.052;15.462;2023-12-29T00:48:02;6.30;65.30
75931;DHT22;64609;47.052;15.462;2023-12-29T00:50:28;6.30;65.30
75931;DHT22;64609;47.052;15.462;2023-12-29T00:52:53;6.30;65.30
75931;DHT22;64609;47.052;15.462;2023-12-29T00:55:19;6.20;65.30
75931;DHT22;64609;47.052;15.462;2023-12-29T00:57:45;6.20;65.30
75931;DHT22;64609;47.052;15.462;2023-12-29T01:00:12;6.20;65.40
75931;DHT22;64609;47.052;15.462;2023-12-29T01:02:38;6.20;65.60
75931;DHT22;64609;47.052;15.462;2023-12-29T01:05:04;6.20;65.60
75931;DHT22;64609;47.052;15.462;2023-12-29T01:07:30;6.20;65.60
75931;DHT22;64609;47.052;15.462;2023-12-29T01:09:55;6.20;65.60
75931;DHT22;64609;47.052;15.462;2023-12-29T01:12:21;6.20;65.60
75931;DHT22;64609;47.052;15.462;2023-12-29T01:14:46;6.30;65.90
75931;DHT22;64609;47.052;15.462;2023-12-29T01:17:12;6.30;65.60
75931;DHT22;64609;47.052;15.462;2023-12-29T01:19:38;6.30;65.60
75931;DHT22;64609;47.052;15.462;2023-12-29T01:22:03;6.20;65.70
75931;DHT22;64609;47.052;15.462;2023-12-29T01:24:30;6.20;65.90
75931;DHT22;64609;47.052;15.462;2023-12-29T01:26:56;6.20;66.00
75931;DHT22;64609;47.052;15.462;2023-12-29T01:29:22;6.20;66.00
75931;DHT22;64609;47.052;15.462;2023-12-29T01:31:47;6.20;66.00
75931;DHT22;64609;47.052;15.462;2023-12-29T01:34:13;6.30;66.10
75931;DHT22;64609;47.052;15.462;2023-12-29T01:36:39;6.30;66.00
75931;DHT22;64609;47.052;15.462;2023-12-29T01:39:05;6.30;66.10
75931;DHT22;64609;47.052;15.462;2023-12-29T01:41:30;6.30;66.20
75931;DHT22;64609;47.052;15.462;2023-12-29T01:46:24;6.30;66.30
75931;DHT22;64609;47.052;15.462;2023-12-29T01:48:50;6.30;66.20
75931;DHT22;64609;47.052;15.462;2023-12-29T01:51:17;6.30;66.10
75931;DHT22;64609;47.052;15.462;2023-12-29T01:53:44;6.20;65.90
75931;DHT22;64609;47.052;15.462;2023-12-29T01:56:10;6.20;66.20
75931;DHT22;64609;47.052;15.462;2023-12-29T01:58:36;6.20;66.30
75931;DHT22;64609;47.052;15.462;2023-12-29T02:01:02;6.20;66.40
75931;DHT22;64609;47.052;15.462;2023-12-29T02:03:28;6.10;66.40
75931;DHT22;64609;47.052;15.462;2023-12-29T02:05:57;6.20;66.50
75931;DHT22;64609;47.052;15.462;2023-12-29T02:08:24;6.20;66.40
75931;DHT22;64609;47.052;15.462;2023-12-29T02:10:49;6.20;66.20
75931;DHT22;64609;47.052;15.462;2023-12-29T02:13:15;6.20;66.00
75931;DHT22;64609;47.052;15.462;2023-12-29T02:15:41;6.10;66.20
75931;DHT22;64609;47.052;15.462;2023-12-29T02:18:11;6.10;66.20
75931;DHT22;64609;47.052;15.462;2023-12-29T02:20:41;6.10;66.20
75931;DHT22;64609;47.052;15.462;2023-12-29T02:23:06;6.10;66.10
75931;DHT22;64609;47.052;15.462;2023-12-29T02:25:32;6.00;66.20
75931;DHT22;64609;47.052;15.462;2023-12-29T02:28:23;5.90;66.60
75931;DHT22;64609;47.052;15.462;2023-12-29T02:30:51;5.90;66.90
75931;DHT22;64609;47.052;15.462;2023-12-29T02:33:22;5.90;66.90
75931;DHT22;64609;47.052;15.462;2023-12-29T02:35:51;5.90;66.60
75931;DHT22;64609;47.052;15.462;2023-12-29T02:38:17;5.90;66.60
75931;DHT22;64609;47.052;15.462;2023-12-29T02:40:43;5.90;66.60
75931;DHT22;64609;47.052;15.462;2023-12-29T02:43:09;5.90;66.40
75931;DHT22;64609;47.052;15.462;2023-12-29T02:45:35;5.90;66.40
75931;DHT22;64609;47.052;15.462;2023-12-29T02:48:01;5.90;66.30
75931;DHT22;64609;47.052;15.462;2023-12-29T02:50:26;5.90;66.20
75931;DHT22;64609;47.052;15.462;2023-12-29T02:52:52;5.90;66.20
75931;DHT22;64609;47.052;15.462;2023-12-29T02:55:18;5.90;66.10
75931;DHT22;64609;47.052;15.462;2023-12-29T02:57:44;5.90;66.20
75931;DHT22;64609;47.052;15.462;2023-12-29T03:00:10;5.80;66.10
75931;DHT22;64609;47.052;15.462;2023-12-29T03:02:36;5.80;66.10
75931;DHT22;64609;47.052;15.462;2023-12-29T03:05:02;5.80;66.20
75931;DHT22;64609;47.052;15.462;2023-12-29T03:07:28;5.80;66.30
75931;DHT22;64609;47.052;15.462;2023-12-29T03:09:53;5.80;66.40
75931;DHT22;64609;47.052;15.462;2023-12-29T03:12:19;5.80;66.30
75931;DHT22;64609;47.052;15.462;2023-12-29T03:14:45;5.70;66.10
75931;DHT22;64609;47.052;15.462;2023-12-29T03:17:12;5.60;66.30
75931;DHT22;64609;47.052;15.462;2023-12-29T03:19:38;5.60;66.40
75931;DHT22;64609;47.052;15.462;2023-12-29T03:22:04;5.50;66.50
75931;DHT22;64609;47.052;15.462;2023-12-29T03:24:30;5.50;66.70
75931;DHT22;64609;47.052;15.462;2023-12-29T03:26:56;5.50;66.60
75931;DHT22;64609;47.052;15.462;2023-12-29T03:29:22;5.50;66.90
75931;DHT22;64609;47.052;15.462;2023-12-29T03:31:47;5.50;67.00
75931;DHT22;64609;47.052;15.462;2023-12-29T03:34:13;5.50;66.90
75931;DHT22;64609;47.052;15.462;2023-12-29T03:36:39;5.50;66.80
75931;DHT22;64609;47.052;15.462;2023-12-29T03:39:04;5.60;66.70
75931;DHT22;64609;47.052;15.462;2023-12-29T03:41:30;5.50;66.60
75931;DHT22;64609;47.052;15.462;2023-12-29T03:43:56;5.60;66.70
75931;DHT22;64609;47.052;15.462;2023-12-29T03:46:25;5.50;66.40
75931;DHT22;64609;47.052;15.462;2023-12-29T03:48:51;5.40;66.40
75931;DHT22;64609;47.052;15.462;2023-12-29T03:51:18;5.40;66.50
75931;DHT22;64609;47.052;15.462;2023-12-29T03:53:44;5.30;66.50
75931;DHT22;64609;47.052;15.462;2023-12-29T03:56:16;5.30;66.70
75931;DHT22;64609;47.052;15.462;2023-12-29T03:58:42;5.30;66.50
75931;DHT22;64609;47.052;15.462;2023-12-29T04:01:12;5.30;66.50
75931;DHT22;64609;47.052;15.462;2023-12-29T04:03:38;5.30;66.50
75931;DHT22;64609;47.052;15.462;2023-12-29T04:06:05;5.30;66.50
75931;DHT22;64609;47.052;15.462;2023-12-29T04:08:30;5.30;66.60
75931;DHT22;64609;47.052;15.462;2023-12-29T04:10:56;5.30;66.50
75931;DHT22;64609;47.052;15.462;2023-12-29T04:13:22;5.30;66.50
75931;DHT22;64609;47.052;15.462;2023-12-29T04:15:48;5.30;66.60
75931;DHT22;64609;47.052;15.462;2023-12-29T04:18:13;5.30;66.50
75931;DHT22;64609;47.052;15.462;2023-12-29T04:20:39;5.30;66.40
75931;DHT22;64609;47.052;15.462;2023-12-29T04:23:06;5.30;66.40
75931;DHT22;64609;47.052;15.462;2023-12-29T04:25:33;5.30;66.30
75931;DHT22;64609;47.052;15.462;2023-12-29T04:27:58;5.30;66.30
75931;DHT22;64609;47.052;15.462;2023-12-29T04:30:24;5.30;66.30
75931;DHT22;64609;47.052;15.462;2023-12-29T04:32:50;5.30;66.30
75931;DHT22;64609;47.052;15.462;2023-12-29T04:35:15;5.30;66.30
75931;DHT22;64609;47.052;15.462;2023-12-29T04:37:44;5.20;66.20
75931;DHT22;64609;47.052;15.462;2023-12-29T04:40:10;5.20;66.30
75931;DHT22;64609;47.052;15.462;2023-12-29T04:42:35;5.20;66.40
75931;DHT22;64609;47.052;15.462;2023-12-29T04:45:01;5.10;66.30
75931;DHT22;64609;47.052;15.462;2023-12-29T04:47:27;5.10;66.10
75931;DHT22;64609;47.052;15.462;2023-12-29T04:49:52;5.10;66.30
75931;DHT22;64609;47.052;15.462;2023-12-29T04:52:18;5.10;66.30
75931;DHT22;64609;47.052;15.462;2023-12-29T04:54:43;5.10;66.30
75931;DHT22;64609;47.052;15.462;2023-12-29T04:57:09;5.10;66.10
75931;DHT22;64609;47.052;15.462;2023-12-29T04:59:35;5.10;66.20
75931;DHT22;64609;47.052;15.462;2023-12-29T05:02:00;5.10;66.30
75931;DHT22;64609;47.052;15.462;2023-12-29T05:04:26;5.10;66.30
75931;DHT22;64609;47.052;15.462;2023-12-29T05:06:51;5.10;66.30
75931;DHT22;64609;47.052;15.462;2023-12-29T05:09:17;5.10;66.20
75931;DHT22;64609;47.052;15.462;2023-12-29T05:11:43;5.10;66.10
75931;DHT22;64609;47.052;15.462;2023-12-29T05:14:08;5.10;66.10
75931;DHT22;64609;47.052;15.462;2023-12-29T05:16:34;5.10;66.10
75931;DHT22;64609;47.052;15.462;2023-12-29T05:19:00;5.10;67.10
75931;DHT22;64609;47.052;15.462;2023-12-29T05:21:26;5.10;66.10
75931;DHT22;64609;47.052;15.462;2023-12-29T05:23:52;5.10;66.20
75931;DHT22;64609;47.052;15.462;2023-12-29T05:26:18;5.10;66.20
75931;DHT22;64609;47.052;15.462;2023-12-29T05:28:44;5.10;66.00
75931;DHT22;64609;47.052;15.462;2023-12-29T05:31:09;5.10;66.00
75931;DHT22;64609;47.052;15.462;2023-12-29T05:33:35;5.10;66.00
75931;DHT22;64609;47.052;15.462;2023-12-29T05:36:08;5.10;66.10
75931;DHT22;64609;47.052;15.462;2023-12-29T05:38:34;5.10;66.20
75931;DHT22;64609;47.052;15.462;2023-12-29T05:41:01;5.10;66.30
75931;DHT22;64609;47.052;15.462;2023-12-29T05:43:28;5.10;66.10
75931;DHT22;64609;47.052;15.462;2023-12-29T05:45:54;5.10;66.00
75931;DHT22;64609;47.052;15.462;2023-12-29T05:48:20;5.10;66.00
75931;DHT22;64609;47.052;15.462;2023-12-29T05:50:45;5.10;66.00
75931;DHT22;64609;47.052;15.462;2023-12-29T05:53:11;5.10;66.00
75931;DHT22;64609;47.052;15.462;2023-12-29T05:55:37;5.10;65.90
75931;DHT22;64609;47.052;15.462;2023-12-29T05:58:02;5.10;65.80
75931;DHT22;64609;47.052;15.462;2023-12-29T06:00:28;5.10;65.70
75931;DHT22;64609;47.052;15.462;2023-12-29T06:02:54;5.10;65.80
75931;DHT22;64609;47.052;15.462;2023-12-29T06:05:19;5.00;65.70
75931;DHT22;64609;47.052;15.462;2023-12-29T06:07:45;5.00;65.50
75931;DHT22;64609;47.052;15.462;2023-12-29T06:10:11;4.90;65.70
75931;DHT22;64609;47.052;15.462;2023-12-29T06:12:37;4.90;65.80
75931;DHT22;64609;47.052;15.462;2023-12-29T06:15:03;4.90;66.20
75931;DHT22;64609;47.052;15.462;2023-12-29T06:17:29;4.80;66.10
75931;DHT22;64609;47.052;15.462;2023-12-29T06:19:54;4.90;66.10
75931;DHT22;64609;47.052;15.462;2023-12-29T06:22:20;4.90;65.90
75931;DHT22;64609;47.052;15.462;2023-12-29T06:24:46;5.00;66.00
75931;DHT22;64609;47.052;15.462;2023-12-29T06:27:12;5.00;65.80
75931;DHT22;64609;47.052;15.462;2023-12-29T06:29:37;5.00;65.90
75931;DHT22;64609;47.052;15.462;2023-12-29T06:32:04;5.00;65.90
75931;DHT22;64609;47.052;15.462;2023-12-29T06:34:30;4.90;65.90
75931;DHT22;64609;47.052;15.462;2023-12-29T06:36:55;4.90;65.80
75931;DHT22;64609;47.052;15.462;2023-12-29T06:39:21;4.90;65.60
75931;DHT22;64609;47.052;15.462;2023-12-29T06:41:48;5.00;65.50
75931;DHT22;64609;47.052;15.462;2023-12-29T06:44:13;4.90;65.30
75931;DHT22;64609;47.052;15.462;2023-12-29T06:46:39;4.90;65.40
75931;DHT22;64609;47.052;15.462;2023-12-29T06:49:08;4.90;65.50
75931;DHT22;64609;47.052;15.462;2023-12-29T06:51:34;4.90;65.50
75931;DHT22;64609;47.052;15.462;2023-12-29T06:54:01;4.90;65.60
75931;DHT22;64609;47.052;15.462;2023-12-29T06:56:26;4.80;65.50
75931;DHT22;64609;47.052;15.462;2023-12-29T06:58:52;4.80;65.70
75931;DHT22;64609;47.052;15.462;2023-12-29T07:01:18;4.80;66.20
75931;DHT22;64609;47.052;15.462;2023-12-29T07:03:44;4.80;66.40
75931;DHT22;64609;47.052;15.462;2023-12-29T07:06:10;4.70;66.30
75931;DHT22;64609;47.052;15.462;2023-12-29T07:08:36;4.70;66.30
75931;DHT22;64609;47.052;15.462;2023-12-29T07:11:02;4.80;66.60
75931;DHT22;64609;47.052;15.462;2023-12-29T07:13:28;4.80;66.30
75931;DHT22;64609;47.052;15.462;2023-12-29T07:15:54;4.80;66.50
75931;DHT22;64609;47.052;15.462;2023-12-29T07:18:19;4.80;66.30
75931;DHT22;64609;47.052;15.462;2023-12-29T07:20:45;4.90;66.50
75931;DHT22;64609;47.052;15.462;2023-12-29T07:23:11;4.90;66.30
75931;DHT22;64609;47.052;15.462;2023-12-29T07:25:36;4.90;66.20
75931;DHT22;64609;47.052;15.462;2023-12-29T07:28:02;4.90;66.90
75931;DHT22;64609;47.052;15.462;2023-12-29T07:30:28;5.00;66.10
75931;DHT22;64609;47.052;15.462;2023-12-29T07:32:53;5.00;65.90
75931;DHT22;64609;47.052;15.462;2023-12-29T07:35:19;5.00;65.90
75931;DHT22;64609;47.052;15.462;2023-12-29T07:37:46;5.10;65.90
75931;DHT22;64609;47.052;15.462;2023-12-29T07:40:12;5.10;65.90
75931;DHT22;64609;47.052;15.462;2023-12-29T07:42:41;5.10;65.90
75931;DHT22;64609;47.052;15.462;2023-12-29T07:45:08;5.10;65.90
75931;DHT22;64609;47.052;15.462;2023-12-29T07:47:34;5.20;65.90
75931;DHT22;64609;47.052;15.462;2023-12-29T07:50:00;5.30;66.10
75931;DHT22;64609;47.052;15.462;2023-12-29T07:52:26;5.50;66.10
75931;DHT22;64609;47.052;15.462;2023-12-29T07:54:52;6.00;66.50
75931;DHT22;64609;47.052;15.462;2023-12-29T07:57:17;7.80;64.80
75931;DHT22;64609;47.052;15.462;2023-12-29T07:59:43;10.00;59.00
75931;DHT22;64609;47.052;15.462;2023-12-29T08:02:09;11.60;54.10
75931;DHT22;64609;47.052;15.462;2023-12-29T08:04:35;13.00;50.60
75931;DHT22;64609;47.052;15.462;2023-12-29T08:07:01;14.30;47.40
75931;DHT22;64609;47.052;15.462;2023-12-29T08:09:27;15.60;45.10
75931;DHT22;64609;47.052;15.462;2023-12-29T08:11:53;16.80;42.00
75931;DHT22;64609;47.052;15.462;2023-12-29T08:14:18;17.70;40.10
75931;DHT22;64609;47.052;15.462;2023-12-29T08:16:44;18.20;38.90
75931;DHT22;64609;47.052;15.462;2023-12-29T08:19:10;17.80;38.30
75931;DHT22;64609;47.052;15.462;2023-12-29T08:21:36;16.70;39.80
75931;DHT22;64609;47.052;15.462;2023-12-29T08:24:02;16.40;41.80
75931;DHT22;64609;47.052;15.462;2023-12-29T08:26:28;17.30;40.50
75931;DHT22;64609;47.052;15.462;2023-12-29T08:28:54;18.20;38.50
75931;DHT22;64609;47.052;15.462;2023-12-29T08:31:19;18.70;37.40
75931;DHT22;64609;47.052;15.462;2023-12-29T08:33:45;19.00;36.40
75931;DHT22;64609;47.052;15.462;2023-12-29T08:36:17;18.50;36.60
75931;DHT22;64609;47.052;15.462;2023-12-29T08:38:43;17.60;37.70
75931;DHT22;64609;47.052;15.462;2023-12-29T08:41:09;16.40;39.60
75931;DHT22;64609;47.052;15.462;2023-12-29T08:43:34;15.50;41.00
75931;DHT22;64609;47.052;15.462;2023-12-29T08:46:01;14.80;42.70
75931;DHT22;64609;47.052;15.462;2023-12-29T08:48:27;14.60;45.10
75931;DHT22;64609;47.052;15.462;2023-12-29T08:50:53;15.00;44.30
75931;DHT22;64609;47.052;15.462;2023-12-29T08:53:18;15.90;43.10
75931;DHT22;64609;47.052;15.462;2023-12-29T08:55:44;16.70;41.30
75931;DHT22;64609;47.052;15.462;2023-12-29T08:58:10;17.30;40.10
75931;DHT22;64609;47.052;15.462;2023-12-29T09:00:36;18.20;38.90
75931;DHT22;64609;47.052;15.462;2023-12-29T09:03:01;18.90;37.40
75931;DHT22;64609;47.052;15.462;2023-12-29T09:05:27;18.90;36.60
75931;DHT22;64609;47.052;15.462;2023-12-29T09:07:52;18.60;37.00
75931;DHT22;64609;47.052;15.462;2023-12-29T09:10:18;18.40;37.70
75931;DHT22;64609;47.052;15.462;2023-12-29T09:12:44;18.40;37.50
75931;DHT22;64609;47.052;15.462;2023-12-29T09:15:09;18.70;37.10
75931;DHT22;64609;47.052;15.462;2023-12-29T09:17:35;19.40;35.90
75931;DHT22;64609;47.052;15.462;2023-12-29T09:20:02;19.90;35.30
75931;DHT22;64609;47.052;15.462;2023-12-29T09:22:28;20.30;34.30
75931;DHT22;64609;47.052;15.462;2023-12-29T09:24:54;20.60;34.00
75931;DHT22;64609;47.052;15.462;2023-12-29T09:27:21;20.80;33.10
75931;DHT22;64609;47.052;15.462;2023-12-29T09:29:46;21.20;33.00
75931;DHT22;64609;47.052;15.462;2023-12-29T09:32:12;21.50;32.30
75931;DHT22;64609;47.052;15.462;2023-12-29T09:34:38;22.00;31.60
75931;DHT22;64609;47.052;15.462;2023-12-29T09:37:03;22.30;30.90
75931;DHT22;64609;47.052;15.462;2023-12-29T09:39:29;22.80;30.30
75931;DHT22;64609;47.052;15.462;2023-12-29T09:41:59;23.10;29.70
75931;DHT22;64609;47.052;15.462;2023-12-29T09:44:30;23.40;29.20
75931;DHT22;64609;47.052;15.462;2023-12-29T09:47:01;23.40;29.10
75931;DHT22;64609;47.052;15.462;2023-12-29T09:49:31;23.30;28.90
75931;DHT22;64609;47.052;15.462;2023-12-29T09:52:00;23.00;29.80
75931;DHT22;64609;47.052;15.462;2023-12-29T09:54:27;22.90;29.40
75931;DHT22;64609;47.052;15.462;2023-12-29T09:56:52;23.20;29.70
75931;DHT22;64609;47.052;15.462;2023-12-29T09:59:18;23.40;29.10
75931;DHT22;64609;47.052;15.462;2023-12-29T10:01:45;23.70;28.70
75931;DHT22;64609;47.052;15.462;2023-12-29T10:04:11;23.90;28.30
75931;DHT22;64609;47.052;15.462;2023-12-29T10:06:41;24.00;28.60
75931;DHT22;64609;47.052;15.462;2023-12-29T10:09:11;24.40;28.10
75931;DHT22;64609;47.052;15.462;2023-12-29T10:11:38;24.40;27.80
75931;DHT22;64609;47.052;15.462;2023-12-29T10:14:27;24.40;27.90
75931;DHT22;64609;47.052;15.462;2023-12-29T10:19:58;24.50;27.70
75931;DHT22;64609;47.052;15.462;2023-12-29T10:23:19;24.50;27.90
75931;DHT22;64609;47.052;15.462;2023-12-29T10:25:24;24.40;27.80
75931;DHT22;64609;47.052;15.462;2023-12-29T10:27:50;24.30;28.20
75931;DHT22;64609;47.052;15.462;2023-12-29T10:30:16;24.40;29.00
75931;DHT22;64609;47.052;15.462;2023-12-29T10:32:42;24.30;28.10
75931;DHT22;64609;47.052;15.462;2023-12-29T10:35:11;24.30;29.00
75931;DHT22;64609;47.052;15.462;2023-12-29T10:37:39;24.20;28.20
75931;DHT22;64609;47.052;15.462;2023-12-29T10:40:06;23.90;28.10
75931;DHT22;64609;47.052;15.462;2023-12-29T10:42:32;23.80;28.40
75931;DHT22;64609;47.052;15.462;2023-12-29T10:45:09;23.60;28.40
75931;DHT22;64609;47.052;15.462;2023-12-29T10:47:35;23.40;28.50
75931;DHT22;64609;47.052;15.462;2023-12-29T10:50:04;23.00;28.90
75931;DHT22;64609;47.052;15.462;2023-12-29T10:52:31;22.70;29.50
75931;DHT22;64609;47.052;15.462;2023-12-29T10:55:06;22.30;30.00
75931;DHT22;64609;47.052;15.462;2023-12-29T10:57:31;21.80;30.70
75931;DHT22;64609;47.052;15.462;2023-12-29T10:59:58;21.50;31.80
75931;DHT22;64609;47.052;15.462;2023-12-29T11:02:26;21.00;32.00
75931;DHT22;64609;47.052;15.462;2023-12-29T11:04:52;20.50;32.70
75931;DHT22;64609;47.052;15.462;2023-12-29T11:07:32;20.40;32.90
75931;DHT22;64609;47.052;15.462;2023-12-29T11:09:59;20.10;33.30
75931;DHT22;64609;47.052;15.462;2023-12-29T11:12:25;19.80;33.70
75931;DHT22;64609;47.052;15.462;2023-12-29T11:14:52;19.70;33.80
75931;DHT22;64609;47.052;15.462;2023-12-29T11:17:18;19.60;34.20
75931;DHT22;64609;47.052;15.462;2023-12-29T11:19:46;19.40;33.80
75931;DHT22;64609;47.052;15.462;2023-12-29T11:22:14;19.20;34.00
75931;DHT22;64609;47.052;15.462;2023-12-29T11:24:41;19.10;34.50
75931;DHT22;64609;47.052;15.462;2023-12-29T11:27:07;19.00;34.60
75931;DHT22;64609;47.052;15.462;2023-12-29T11:29:34;18.90;34.90
75931;DHT22;64609;47.052;15.462;2023-12-29T11:32:04;18.90;34.50
75931;DHT22;64609;47.052;15.462;2023-12-29T11:34:42;18.80;34.80
75931;DHT22;64609;47.052;15.462;2023-12-29T11:40:20;18.70;34.90
75931;DHT22;64609;47.052;15.462;2023-12-29T11:42:49;18.50;35.20
75931;DHT22;64609;47.052;15.462;2023-12-29T11:45:44;18.50;35.60
75931;DHT22;64609;47.052;15.462;2023-12-29T11:48:10;18.30;35.70
75931;DHT22;64609;47.052;15.462;2023-12-29T11:50:38;18.30;36.10
75931;DHT22;64609;47.052;15.462;2023-12-29T11:53:06;18.20;36.20
75931;DHT22;64609;47.052;15.462;2023-12-29T11:55:37;18.10;36.70
75931;DHT22;64609;47.052;15.462;2023-12-29T11:58:23;18.00;36.90
75931;DHT22;64609;47.052;15.462;2023-12-29T12:00:49;17.90;36.90
75931;DHT22;64609;47.052;15.462;2023-12-29T12:03:16;17.90;36.90
75931;DHT22;64609;47.052;15.462;2023-12-29T12:05:49;17.80;36.90
75931;DHT22;64609;47.052;15.462;2023-12-29T12:10:57;17.60;37.50
75931;DHT22;64609;47.052;15.462;2023-12-29T12:13:44;17.50;37.80
75931;DHT22;64609;47.052;15.462;2023-12-29T12:16:46;17.50;38.10
75931;DHT22;64609;47.052;15.462;2023-12-29T12:18:55;17.40;38.50
75931;DHT22;64609;47.052;15.462;2023-12-29T12:21:23;17.40;38.50
75931;DHT22;64609;47.052;15.462;2023-12-29T12:23:51;17.30;39.00
75931;DHT22;64609;47.052;15.462;2023-12-29T12:26:18;17.10;39.00
75931;DHT22;64609;47.052;15.462;2023-12-29T12:28:45;16.90;39.30
75931;DHT22;64609;47.052;15.462;2023-12-29T12:31:13;16.80;39.20
75931;DHT22;64609;47.052;15.462;2023-12-29T12:33:38;16.70;39.50
75931;DHT22;64609;47.052;15.462;2023-12-29T12:36:04;16.60;39.40
75931;DHT22;64609;47.052;15.462;2023-12-29T12:38:30;16.50;39.90
75931;DHT22;64609;47.052;15.462;2023-12-29T12:41:09;16.40;40.20
75931;DHT22;64609;47.052;15.462;2023-12-29T12:43:38;16.30;41.40
75931;DHT22;64609;47.052;15.462;2023-12-29T12:46:08;16.20;40.60
75931;DHT22;64609;47.052;15.462;2023-12-29T12:48:45;16.20;41.00
75931;DHT22;64609;47.052;15.462;2023-12-29T12:51:12;16.10;40.90
75931;DHT22;64609;47.052;15.462;2023-12-29T12:53:42;16.10;41.00
75931;DHT22;64609;47.052;15.462;2023-12-29T12:56:09;16.00;41.10
75931;DHT22;64609;47.052;15.462;2023-12-29T12:58:36;16.00;41.20
75931;DHT22;64609;47.052;15.462;2023-12-29T13:01:02;16.00;41.20
75931;DHT22;64609;47.052;15.462;2023-12-29T13:03:28;16.00;41.40
75931;DHT22;64609;47.052;15.462;2023-12-29T13:05:56;16.00;41.20
75931;DHT22;64609;47.052;15.462;2023-12-29T13:08:23;16.00;41.20
75931;DHT22;64609;47.052;15.462;2023-12-29T13:10:50;16.00;41.10
75931;DHT22;64609;47.052;15.462;2023-12-29T13:13:16;15.90;41.30
75931;DHT22;64609;47.052;15.462;2023-12-29T13:15:51;15.90;41.20
75931;DHT22;64609;47.052;15.462;2023-12-29T13:18:17;15.90;41.00
75931;DHT22;64609;47.052;15.462;2023-12-29T13:20:47;15.80;41.20
75931;DHT22;64609;47.052;15.462;2023-12-29T13:23:13;15.70;41.50
75931;DHT22;64609;47.052;15.462;2023-12-29T13:25:46;15.70;41.50
75931;DHT22;64609;47.052;15.462;2023-12-29T13:28:13;15.60;41.90
75931;DHT22;64609;47.052;15.462;2023-12-29T13:30:40;15.50;41.90
75931;DHT22;64609;47.052;15.462;2023-12-29T13:33:19;15.50;42.00
75931;DHT22;64609;47.052;15.462;2023-12-29T13:35:54;15.50;42.00
75931;DHT22;64609;47.052;15.462;2023-12-29T13:38:27;15.40;42.20
75931;DHT22;64609;47.052;15.462;2023-12-29T13:41:02;15.40;42.50
75931;DHT22;64609;47.052;15.462;2023-12-29T13:43:31;15.40;42.50
75931;DHT22;64609;47.052;15.462;2023-12-29T13:45:58;15.30;42.60
75931;DHT22;64609;47.052;15.462;2023-12-29T13:48:24;15.30;42.60
75931;DHT22;64609;47.052;15.462;2023-12-29T13:50:51;15.30;42.70
75931;DHT22;64609;47.052;15.462;2023-12-29T13:53:21;15.20;42.80
75931;DHT22;64609;47.052;15.462;2023-12-29T13:55:47;15.20;43.00
75931;DHT22;64609;47.052;15.462;2023-12-29T13:58:12;15.10;43.10
75931;DHT22;64609;47.052;15.462;2023-12-29T14:00:42;15.10;43.30
75931;DHT22;64609;47.052;15.462;2023-12-29T14:03:31;15.10;43.50
75931;DHT22;64609;47.052;15.462;2023-12-29T14:06:03;15.00;43.60
75931;DHT22;64609;47.052;15.462;2023-12-29T14:08:33;15.00;43.70
75931;DHT22;64609;47.052;15.462;2023-12-29T14:11:07;14.90;43.70
75931;DHT22;64609;47.052;15.462;2023-12-29T14:13:34;14.90;43.90
75931;DHT22;64609;47.052;15.462;2023-12-29T14:16:00;14.80;44.00
75931;DHT22;64609;47.052;15.462;2023-12-29T14:20:51;14.80;44.70
75931;DHT22;64609;47.052;15.462;2023-12-29T14:23:18;14.70;44.80
75931;DHT22;64609;47.052;15.462;2023-12-29T14:25:44;14.70;44.70
75931;DHT22;64609;47.052;15.462;2023-12-29T14:28:19;14.70;44.90
75931;DHT22;64609;47.052;15.462;2023-12-29T14:30:47;14.60;45.20
75931;DHT22;64609;47.052;15.462;2023-12-29T14:33:13;14.50;45.40
75931;DHT22;64609;47.052;15.462;2023-12-29T14:35:38;14.40;46.00
75931;DHT22;64609;47.052;15.462;2023-12-29T14:38:04;14.40;46.10
75931;DHT22;64609;47.052;15.462;2023-12-29T14:40:30;14.30;45.90
75931;DHT22;64609;47.052;15.462;2023-12-29T14:42:55;14.30;46.00
75931;DHT22;64609;47.052;15.462;2023-12-29T14:45:21;14.20;46.20
75931;DHT22;64609;47.052;15.462;2023-12-29T14:47:47;14.10;47.20
75931;DHT22;64609;47.052;15.462;2023-12-29T14:50:14;14.10;47.30
75931;DHT22;64609;47.052;15.462;2023-12-29T14:52:41;14.00;47.10
75931;DHT22;64609;47.052;15.462;2023-12-29T14:55:06;13.90;47.00
75931;DHT22;64609;47.052;15.462;2023-12-29T14:57:32;13.90;48.10
75931;DHT22;64609;47.052;15.462;2023-12-29T14:59:58;13.80;47.50
75931;DHT22;64609;47.052;15.462;2023-12-29T15:02:23;13.70;47.80
75931;DHT22;64609;47.052;15.462;2023-12-29T15:04:49;13.60;48.20
75931;DHT22;64609;47.052;15.462;2023-12-29T15:07:17;13.50;48.60
75931;DHT22;64609;47.052;15.462;2023-12-29T15:09:43;13.40;49.20
75931;DHT22;64609;47.052;15.462;2023-12-29T15:12:09;13.30;49.60
75931;DHT22;64609;47.052;15.462;2023-12-29T15:14:35;13.20;49.60
75931;DHT22;64609;47.052;15.462;2023-12-29T15:17:00;13.10;49.60
75931;DHT22;64609;47.052;15.462;2023-12-29T15:19:26;13.00;50.00
75931;DHT22;64609;47.052;15.462;2023-12-29T15:21:51;12.90;50.30
75931;DHT22;64609;47.052;15.462;2023-12-29T15:24:22;12.80;50.50
75931;DHT22;64609;47.052;15.462;2023-12-29T15:26:48;12.70;51.20
75931;DHT22;64609;47.052;15.462;2023-12-29T15:29:13;12.60;51.70
75931;DHT22;64609;47.052;15.462;2023-12-29T15:31:43;12.50;51.70
75931;DHT22;64609;47.052;15.462;2023-12-29T15:34:12;12.40;51.70
75931;DHT22;64609;47.052;15.462;2023-12-29T15:36:37;12.30;51.90